createdAt,value
2023-05-09T00:05:04.130Z,79.66
2023-05-09T00:10:26.878Z,79.91
2023-05-09T00:15:49.189Z,80.24
2023-05-09T00:21:12.111Z,80.81
2023-05-09T00:26:34.943Z,81.49
2023-05-09T00:31:57.212Z,81.90
2023-05-09T00:37:19.592Z,82.49
2023-05-09T00:42:42.333Z,83.20
2023-05-09T00:48:04.732Z,83.68
2023-05-09T00:53:28.094Z,84.36
2023-05-09T00:58:50.411Z,84.99
2023-05-09T01:04:13.291Z,85.25
2023-05-09T01:10:07.087Z,85.58
2023-05-09T01:15:55.624Z,85.87
2023-05-09T01:21:37.278Z,86.12
2023-05-09T01:27:12.775Z,86.37
2023-05-09T01:32:39.430Z,86.41
2023-05-09T01:38:03.692Z,86.37
2023-05-09T01:43:29.433Z,86.60
2023-05-09T01:48:54.915Z,87.06
2023-05-09T01:54:19.382Z,87.50
2023-05-09T01:59:44.132Z,87.65
2023-05-09T02:05:11.253Z,87.88
2023-05-09T02:10:36.124Z,88.29
2023-05-09T02:15:59.431Z,88.76
2023-05-09T02:21:22.606Z,89.35
2023-05-09T02:26:45.015Z,89.94
2023-05-09T02:32:10.575Z,90.42
2023-05-09T02:37:34.291Z,90.83
2023-05-09T02:42:56.532Z,91.34
2023-05-09T02:48:20.705Z,92.05
2023-05-09T02:53:43.578Z,92.82
2023-05-09T02:59:05.862Z,93.45
2023-05-09T03:04:28.641Z,93.90
2023-05-09T03:09:51.049Z,94.46
2023-05-09T03:15:14.273Z,94.95
2023-05-09T03:20:38.811Z,95.33
2023-05-09T03:26:01.048Z,96.03
2023-05-09T03:31:23.973Z,96.61
2023-05-09T03:36:46.329Z,97.06
2023-05-09T03:42:08.730Z,97.58
2023-05-09T17:32:12.070Z,23.28
2023-05-09T17:37:34.320Z,24.17
2023-05-09T17:42:59.440Z,24.35
2023-05-09T17:48:21.748Z,24.86
2023-05-09T17:53:44.474Z,26.02
2023-05-09T17:59:08.118Z,27.00
2023-05-09T18:04:31.977Z,27.73
2023-05-09T18:09:54.448Z,28.65
2023-05-09T18:15:17.658Z,29.47
2023-05-09T18:20:41.345Z,30.31
2023-05-09T18:26:04.560Z,30.81
2023-05-09T18:31:31.559Z,31.73
2023-05-09T18:36:54.275Z,32.61
2023-05-09T18:42:16.956Z,33.36
2023-05-09T18:47:39.597Z,34.04
2023-05-09T18:53:02.046Z,34.71
2023-05-09T18:58:25.121Z,35.41
2023-05-09T19:03:49.307Z,35.96
2023-05-09T19:09:11.954Z,36.72
2023-05-09T19:14:34.380Z,37.71
2023-05-09T19:19:57.218Z,38.68
2023-05-09T19:25:19.848Z,39.16
2023-05-09T19:30:42.784Z,39.47
2023-05-09T19:36:05.624Z,39.52
2023-05-09T19:41:28.004Z,40.45
2023-05-09T19:46:50.542Z,41.25
2023-05-09T19:52:13.342Z,42.23
2023-05-09T19:57:35.855Z,43.18
2023-05-09T20:02:58.213Z,43.16
2023-05-09T20:14:00.931Z,42.72
2023-05-09T20:19:24.763Z,43.07
2023-05-09T20:24:47.260Z,42.75
2023-05-09T20:30:10.435Z,42.58
2023-05-09T20:35:33.304Z,42.51
2023-05-09T20:40:56.098Z,42.68
2023-05-09T20:46:18.418Z,42.87
2023-05-09T20:51:40.984Z,43.12
2023-05-09T20:57:03.422Z,43.37
2023-05-09T21:02:25.739Z,43.27
2023-05-09T21:07:48.265Z,43.28
2023-05-09T21:13:10.987Z,43.30
2023-05-09T21:18:33.548Z,43.33
2023-05-09T21:23:55.964Z,43.43
2023-05-09T21:29:18.273Z,43.97
2023-05-09T21:34:40.517Z,44.43
2023-05-09T21:40:05.685Z,44.52
2023-05-09T21:45:28.043Z,45.07
2023-05-09T21:50:50.775Z,45.38
2023-05-09T21:56:13.101Z,46.11
2023-05-09T22:01:35.710Z,46.41
2023-05-09T22:07:00.797Z,46.54
2023-05-09T22:12:23.292Z,47.11
2023-05-09T22:17:45.771Z,47.42
2023-05-09T22:23:08.946Z,47.74
2023-05-09T22:28:31.238Z,47.99
2023-05-09T22:33:53.473Z,48.14
2023-05-09T22:39:15.996Z,48.34
2023-05-09T22:44:39.356Z,48.48
2023-05-09T22:50:03.161Z,48.70
2023-05-09T22:55:26.075Z,48.92
2023-05-09T23:00:48.493Z,48.98
2023-05-09T23:06:11.834Z,49.28
2023-05-09T23:11:34.084Z,49.44
2023-05-09T23:16:56.953Z,49.92
2023-05-09T23:22:19.208Z,50.66
2023-05-09T23:27:41.644Z,51.42
2023-05-09T23:33:04.022Z,51.84
2023-05-09T23:38:26.382Z,51.77
2023-05-09T23:43:49.273Z,51.73
2023-05-09T23:49:13.263Z,51.55
2023-05-09T23:54:35.873Z,51.35
2023-05-09T23:59:58.292Z,51.29
